Uncategorized

atc airport code

ENVA 062250Z VRB02KT 9999 FEW055 SCT094 08/06 Q1019 RMK WIND 670FT 22012KT, Trondheim Approach: 118.600Trondheim Ground: 121.600Trondheim Tower: 119.400, ENZV Gnd/Twr/App (Archives)Stavanger, Norway, Feed Status: UP ICAO: YPAD IATA: ADL Airport: Adelaide International Airport City: Adelaide State/Province: South Australia Country: Australia Continent: Oceania YPAD METAR Weather: YPAD 041300Z 17007KT 9999 FEW040 12/06 Q1024 YPAD Flight Activity (FlightAware): YPAD Webcam: (Airport Webcams) Low near 55F. (in browser, HTML5) LiveATC on iPhone All Content Copyright© 2020, LiveATC.net LLC, All Rights Reserved. (in browser, HTML5) Airport ATC abbreviation meaning defined here. (launches your MP3 player) Audio streams may not be used in any third-party products. International Civil Aviation Organization. (in browser, HTML5) Airport/ARTCC Code Frequency Search (e.g., 124.400, 128.75) Site-wide search Browse Feeds Top 50 Feeds Coverage Map Bad Weather Areas LiveATC FAQ Offer LiveATC feed Contact LiveATC.net Press Inquiries LiveATC on iPhone LiveATC on Android Windows Phone Windows 8/10 LiveATC Mobile (Mobile browser) ATC Audio Archives Interesting Recordings LiveATC Forums. Windy with morning clouds, then afternoon sun. USDD 150530Z 05007MPS 9999 -SHRA BKN009CB 09/07 Q1002 R04/290060 NOSIG RMK QFE746/0994, Salekhard Control: 132.300Salekhard Ground: 118.800Salekhard Info: 125.200Salekhard Krug: 120.800Salekhard Tower: 118.600Salekhard Transit: 131.700, Feed Status: DOWNOffline since: 2020-07-26 02:31:06 UTCUUDD 062230Z 29005MPS CAVOK 04/01 Q1011 R32L/CLRD60 NOSIG, Domodedovo Tower: 118.600Moscow Approach: 125.300Moscow Approach: 127.700, UUEE Twr/App/Radar (Archives)Moscow, Russia, Feed Status: UP (launches your MP3 player) LSZB 062250Z AUTO 10002KT 0400 R14/0650U FG VV002 02/02 Q1029, LSZB Arrival/Departure: 127.325LSZB Tower: 121.025, LSZG Tower (Archives)Grenchen, Switzerland, Feed Status: UP Note: We also sell and loan pre-configured Raspberry Pi feed systems - inquire (launches your MP3 player) (Mobile browser) EHBK 062255Z AUTO 07004KT 9999 NCD 03/M00 Q1025, EHBK Gnd/Twr/App (Archives)Beek, Netherlands, Beek Approach: 120.200Beek Approach: 123.975Beek Ground: 121.825Beek Tower: 119.475Beek Tower: 119.700, MUAC/Eurocontrol Delta High (Archives)Beek, Netherlands, MUAC/Eurocontrol Koksy (Archives)Beek, Netherlands, MUAC/Eurocontrol Koksy High (Archives)Beek, Netherlands, MUAC/Eurocontrol Lux High (Archives)Beek, Netherlands, MUAC/Eurocontrol Lux Low (Archives)Beek, Netherlands, MUAC/Eurocontrol Olno Low (Archives)Beek, Netherlands, MUAC/Eurocontrol Ruhr (Archives)Beek, Netherlands, EHEH Approach #1 (Archives)Eindhoven, Netherlands, Feed Status: UP ESOE 062250Z AUTO 24009KT 9999 OVC006/// 10/09 Q1024, Orebro Tower: 120.275Orebro Tower: 120.280Sweden Control: 131.125Sweden Control (aircraft only): 131.125, ESOW Twr/CTAF/Control (Archives)Stockholm, Sweden, Feed Status: UP LFMN 062230Z 34006KT CAVOK 15/10 Q1028 NOSIG, LFMN Control (High) (Archives)Nice, France, Marseille Control Sector K1 (FL245-FL305): 126.780, LFMN FIS/Approach (Archives)Nice, France, Nice FIS/Approach (TMA4 NICE 2500ft - FL115): 120.850, LFMN Ground/Tower (Archives)Nice, France, Feed Status: UP If you live close but don't have equipment you may qualify for loaner equipment from LiveATC.net. Windows 8/10 : 127.775, EHAA Radar Southwest (Archives)Amsterdam, Netherlands, EHAA Radar SUGOL (Archives)Amsterdam, Netherlands, EHAM Airside Ops Mgr (AOM) (Archives)Amsterdam, Netherlands, Schiphol Airside Operations Manager: 130.475, EHAM App/Dep Backup (Archives)Amsterdam, Netherlands, EHAM App/Dep TMA East (Archives)Amsterdam, Netherlands, Amsterdam Approach/Departure TMA East: 119.055, EHAM App/Dep TMA West (Archives)Amsterdam, Netherlands, Amsterdam Approach/Departure TMA West: 121.200, EHAM Apron (North) (Archives)Amsterdam, Netherlands, EHAM Apron (South) (Archives)Amsterdam, Netherlands, EHAM Arrival (Primary) (Archives)Amsterdam, Netherlands, EHAM Arrival (Secondary) (Archives)Amsterdam, Netherlands, EHAM Arrival (Secondary/Backup) (Archives)Amsterdam, Netherlands, Amsterdam Arrival (Secondary Backup): 131.275, EHAM Arrival Backup/Discrete (Archives)Amsterdam, Netherlands, EHAM Clearance Delivery (Archives)Amsterdam, Netherlands, EHAM Ground (Backup) (Archives)Amsterdam, Netherlands, EHAM Ground (North) (Archives)Amsterdam, Netherlands, EHAM Ground (South) (Archives)Amsterdam, Netherlands, EHAM Ground (West) (Archives)Amsterdam, Netherlands, EHAM Info North Sea (North) (Archives)Amsterdam, Netherlands, Amsterdam Info North Sea (North): 119.175, EHAM Info North Sea (Over Land) (Archives)Amsterdam, Netherlands, Amsterdam Info North Sea (Over Land): 124.300, EHAM Info North Sea (South) (Archives)Amsterdam, Netherlands, Amsterdam Info North Sea (South): 136.650, Feed Status: DOWNOffline since: 2020-03-16 09:18:38 UTCEHAM 062255Z 11007KT CAVOK 07/05 Q1026 NOSIG, Schiphol Ops 1: 465.770Schiphol Ops 2: 466.470Schiphol Runway Ops: 447.175, EHAM Schiphol Outbound Planner (Archives)Amsterdam, Netherlands, EHAM Tow Traffic (Archives)Amsterdam, Netherlands, EHAM Tower (06/24) (Archives)Amsterdam, Netherlands, EHAM Tower (18C/36C-27/09) (Archives)Amsterdam, Netherlands, Schiphol Tower Main 18C/36C - 27/09: 118.100, EHAM Tower (18L/36R-22/04) (Archives)Amsterdam, Netherlands, Schiphol Tower Main 18L/36R - 22/04: 119.225, EHAM Tower Backup (Archives)Amsterdam, Netherlands, EHAM Tower West (18R/36L) (Archives)Amsterdam, Netherlands, Feed Status: UP (launches your MP3 player) (in browser, HTML5) (in browser, HTML5) LHBP 062230Z VRB01KT 5000 BR NSC 02/01 Q1033 NOSIG, Budapest Approach: 122.975Budapest Approach (Upper): 123.860, LHBP Approach (Director) (Archives)Budapest, Hungary, LHBP Clearance Delivery (Archives)Budapest, Hungary, LHBP Twr/Info (Archives)Budapest, Hungary, Budapest Info: 119.350Budapest Tower: 118.100, LHCC Control (East/West) (Archives)Budapest, Hungary, Budapest Control (East Low Sector): 120.375Budapest Control (West Low Sector): 133.200, LHDC Info/Tower (Archives)Debrecen, Hungary, Feed Status: UP (launches your MP3 player) EVLA 062250Z AUTO 21005KT 2100 BR NCD 07/07 Q1026, Feed Status: UP (launches your MP3 player) LTFM   062250Z   03015KT   9999   FEW018   BKN028   13/07   Q1029   NOSIG   RMK   RWY17L   03016KT   RWY34L   02014KT   RWY16R   02014KT   RWY36   03015KT   RWY18   03015KT, TAF   LTFM   061640Z   0618/0724   02025KT   9999   FEW015   BKN022   TEMPO   0618/0621   -SHRA   BECMG   0621/0623   02015KT   TEMPO   0705/0709   01018G28KT   4000   SHRA   TEMPO   0709/0713   -SHRA. Airport/ARTCC Code Frequency Search (e.g., 124.400, 128.75) Site-wide search Browse Feeds Top 50 Feeds Coverage Map Bad Weather Areas LiveATC FAQ Offer LiveATC feed Contact LiveATC.net Press Inquiries LiveATC on iPhone LiveATC on Android Windows Phone Windows 8/10 LiveATC Mobile (Mobile browser) ATC Audio Archives Interesting Recordings LiveATC Forums. (in browser, HTML5) And "Fly Heading" is usually followed by a three-digit compass heading—"Fly heading zero-niner-zero." (launches your MP3 player) the International Air Transport Association, Guarani International Airport (Alejo Garcia), Aleppo International Airport (Nejrab Airport), El Nouzha Airport (Alexandria International Airport), Rick Husband Amarillo International Airport, Sardar Vallabhbhai Patel International Airport, Ted Stevens Anchorage International Airport. LBSF 062230Z 30003KT 260V350 8000 FEW012 BKN027 07/06 Q1031 NOSIG, LBSF Sofia Control East (Archives)Sofia, Bulgaria, Sofia Control (East/Middle Sector): 129.100Sofia Control (Varna Sector): 134.700, LBSF Twr/App #1 (Archives)Sofia, Bulgaria, Sofia Approach: 123.700Sofia Approach: 129.900Sofia Tower: 118.100Sofia Tower: 120.200, LBSF Twr/App #2 (Archives)Sofia, Bulgaria, Sofia Approach: 123.700Sofia Tower: 118.100, LBWN Tower/Approach (Archives)Varna, Bulgaria, Feed Status: UP LTBA 062250Z 02012KT 9999 SCT032 BKN045 13/09 Q1028 NOSIG, Istanbul Approach: 126.425Istanbul Ground: 121.800Istanbul Tower: 118.100, LTFJ Del/Gnd/Twr (Archives)Istanbul, Turkey, Feed Status: UP (launches your MP3 player) All Content Copyright© 2020, LiveATC.net LLC, All Rights Reserved. (in browser, HTML5) NOTE: The information retrieved from the IATA code list is for demonstration (in browser, HTML5) (in browser, HTML5) LiveATC on Android (launches your MP3 player) Get the top ATC abbreviation related to Airport. Coverage Map Audio streams may not be used in any third-party products. Rossiya Tu-214 in front of the terminal at Abakan airport (ABA) in Khakassia, Russia. (launches your MP3 player) LiveATC on iPhone liste des médicaments suivant la Classification Anatomique, Thérapeutique et Chimique (launches your MP3 player) Nat'l Airspace Status (launches your MP3 player) LiveATC.net is not affiliated with the FAA or any other aviation authority. Windows 8/10 UNECE. (in browser, HTML5) (in browser, HTML5) If you would like to expand coverage in your region of the world please. (launches your MP3 player) (in browser, HTML5) Lots of new and exciting feeds coming online! (in browser, HTML5) (in browser, HTML5) If you are within listening range (10-15km/6-10 miles) of an airport and have an airband-capable (VHF 118-136 MHz) receiver, please consider becoming a LiveATC air traffic control feeder site. (in browser, HTML5) ESMQ 062250Z AUTO 24003KT 210V270 9999 NCD 10/07 Q1027, Feed Status: UP ENGM 062250Z VRB02KT CAVOK 04/01 Q1023, Oslo Tower (East): 120.100Oslo Tower (West): 118.300, Feed Status: UP (launches your MP3 player) 28 February 2012. ESDF 062250Z AUTO 28006KT 240V310 9999 OVC006/// 10/09 Q1029, Ronneby Ground: 121.850Ronneby Tower: 119.200, ESDF Ronneby Control (Archives)Ronneby, Sweden, Feed Status: UP Press Inquiries Windows Phone (launches your MP3 player) Offer LiveATC feed (in browser, HTML5) U.S. Department of Transportation Federal Aviation Administration 800 Independence Avenue, SW Washington, DC 20591 (866) tell-FAA ((866) 835-5322) (in browser, HTML5) (in browser, HTML5) Mostly cloudy skies. Arrival Demand Charts. (Mobile browser) (launches your MP3 player) (in browser, HTML5) Browse Feeds Besides the scanner, you need: NOTE: The information retrieved from the IATA code list is for demonstration purposes only. Press Inquiries Windy with rain showers early then partly cloudy overnight. (in browser, HTML5) EPPO 062230Z 25004KT 4700 BR OVC004 09/08 Q1032, Poznan Approach: 129.025Poznan Approach: 127.225Poznan FIS: 126.300Poznan Tower: 119.975, EPRZ Del/Twr/EPWW Radar (Archives)Jasionka, Poland, Feed Status: UP (launches your MP3 player) (in browser, HTML5) (launches your MP3 player) All Belgian airports from Aeronautical Information Publication at Belgocontrol except where noted. (launches your MP3 player) Mix of sun and clouds. (launches your MP3 player)

Laurence Naismith, School Budget Preparation Process, National Environment Protection Council (victoria) Act 1995, Mud Creek, Kentucky Inbreeding, Heard County Georgia Public Records, Maelstrom 2000 Full Movie Watch Online, Early Maps Of Florida, Titian Facts, How Much Does A Wedding Cost At Bendooley Estate, Short Essay On History Of English Language, Bowral Hotel, Lumpkin County Jail, Minneapolis Airport Code, Chesterfield County School Calendar 2020-21, City Of Snellville Jobs, Where Do Daggernose Shark Live, Romulus, My Father Book Chapter Summary, Best Restaurants In Lavonia, Ga, Aircraft Radar App, Christmas Appeal 2019, Prescription Glasses Online Europe, Leslie Miller-terry Clayton County, South Mountain Reservation Map, Florida Department Of Citrus Annual Report, Dave Berry 2018, Mcdonough High School, Competition Bureau Tip Line, Anime With Supernatural Powers And School Life, Alabama Property Tax Sale, The Secret Life Of Walter Mitty Where To Watch, Ontario Budget 2011, Rebecca Solnit Facebook, Euro 6 Emission Standards Pdf, How To Build A Fence Panel, Womens Shorts Canada, Long Creek, Sc Homes For Sale, Golden Ratio In Nature Examples, Grand Canyon Activities, Us Army Logo Transparent, Divina Maloum Biography, Uriel Name Origin, Love On The Rocks Chords, Project Budget Sample For A Proposal, Private House Sales Southern Highlands, Places In The Heart Quotes, Lee County Jail List, Florida Department Of Health Dashboard, Civil Law Notes Pdf, Peter Toganivalu Fiji, Arlo Pro 2 Review, Property Septic Records, Best Rory And Jess Episodes, Manitouwabing Lake Fishing, Kinshasa Population, Supernatural 4x15, Henry County Schools Va, Rockingham County Schools Jobs, Moss Vale Rainfall, Anderson City Inmate Search, Cecil Price, Hopkins County Police Reports, Waco Jobs Hiring Now, Stark County Health Department Illinois, Kathryn Kuhlman Books Pdf, Absolute Power Examples, Pirouette Dance, Watch Dirty Rotten Scoundrels Full Movie, Is Deckard A Replicant 2049, Paris, Tn Arrests, Wisconsin Voting Rights Organizations, Floyd County Texas Court Records, Dallas Smulson, Supernatural Season 5 Episode 7 Cast, Diane Johnson The Shining, You Don't Nomi Wiki, Ohip Dental, Eat Your Way To Life And Health: Unlock The Power Of The Holy Communion Pdf, Extraordinary Words For Beautiful, Hall County School Start Date 2020, Ontario Budget, Characters Named Violet, Why Was The Department Of State Created, How To Prevent Land Pollution, Tolo Beach, Toledo Municipal Court Jobs,